createdAt,value
2018-03-25T00:02:29.866Z,99336.88
2018-03-25T00:04:59.780Z,99330.47
2018-03-25T00:07:29.713Z,99327.78
2018-03-25T00:09:59.620Z,99335.62
2018-03-25T00:12:28.759Z,99332.36
2018-03-25T00:14:57.878Z,99336.07
2018-03-25T00:17:26.987Z,99332.84
2018-03-25T00:19:56.104Z,99337.37
2018-03-25T00:22:25.996Z,99334.49
2018-03-25T00:24:55.107Z,99334.94
2018-03-25T00:27:24.996Z,99333.89
2018-03-25T00:29:54.127Z,99333.50
2018-03-25T00:32:24.008Z,99339.88
2018-03-25T00:34:53.137Z,99340.48
2018-03-25T00:37:23.016Z,99331.19
2018-03-25T00:39:52.133Z,99337.41
2018-03-25T00:42:22.078Z,99335.23
2018-03-25T00:44:51.174Z,99340.33
2018-03-25T00:47:20.346Z,99340.47
2018-03-25T00:49:50.231Z,99344.98
2018-03-25T00:52:19.359Z,99349.63
2018-03-25T00:54:49.259Z,99346.82
2018-03-25T00:57:18.367Z,99341.59
2018-03-25T00:59:48.275Z,99342.30
2018-03-25T01:02:17.414Z,99342.19
2018-03-25T01:04:46.602Z,99350.20
2018-03-25T01:07:15.710Z,99348.33
2018-03-25T01:09:44.851Z,99348.33
2018-03-25T01:12:13.970Z,99353.07
2018-03-25T01:14:43.853Z,99351.95
2018-03-25T01:17:13.015Z,99359.16
2018-03-25T01:19:42.134Z,99361.70
2018-03-25T01:22:11.240Z,99360.08
2018-03-25T01:24:40.367Z,99361.89
2018-03-25T01:27:10.238Z,99361.41
2018-03-25T01:29:40.136Z,99365.69
2018-03-25T01:32:09.240Z,99363.83
2018-03-25T01:34:38.350Z,99362.00
2018-03-25T01:37:07.451Z,99352.21
2018-03-25T01:39:36.591Z,99358.88
2018-03-25T01:42:06.460Z,99355.80
2018-03-25T01:44:35.572Z,99360.36
2018-03-25T01:47:04.682Z,99356.41
2018-03-25T01:49:34.575Z,99361.50
2018-03-25T01:52:03.695Z,99359.08
2018-03-25T01:54:33.573Z,99366.55
2018-03-25T01:57:02.712Z,99357.77
2018-03-25T01:59:32.582Z,99360.61
2018-03-25T02:02:01.719Z,99353.55
2018-03-25T02:04:31.583Z,99358.22
2018-03-25T02:07:00.691Z,99357.64
2018-03-25T02:09:41.907Z,99363.75
2018-03-25T02:12:11.001Z,99364.28
2018-03-25T02:14:40.135Z,99358.55
2018-03-25T02:17:09.231Z,99360.70
2018-03-25T02:19:38.339Z,99356.16
2018-03-25T02:22:07.429Z,99362.17
2018-03-25T02:24:36.553Z,99357.98
2018-03-25T02:27:06.406Z,99357.05
2018-03-25T02:29:35.738Z,99362.39
2018-03-25T02:32:05.248Z,99362.10
2018-03-25T02:34:34.326Z,99361.67
2018-03-25T02:37:03.443Z,99362.74
2018-03-25T02:39:34.412Z,99371.06
2018-03-25T02:42:04.044Z,99365.05
2018-03-25T02:44:33.206Z,99370.91
2018-03-25T02:47:02.330Z,99373.52
2018-03-25T02:49:31.416Z,99379.75
2018-03-25T02:52:00.628Z,99377.24
2018-03-25T02:54:29.746Z,99382.11
2018-03-25T02:56:58.836Z,99379.75
2018-03-25T02:59:27.947Z,99386.04
2018-03-25T03:01:57.041Z,99386.34
2018-03-25T03:04:26.154Z,99387.97
2018-03-25T03:06:56.017Z,99387.36
2018-03-25T03:09:25.141Z,99382.67
2018-03-25T03:11:54.212Z,99380.80
2018-03-25T03:14:23.360Z,99388.85
2018-03-25T03:16:52.514Z,99387.89
2018-03-25T03:19:21.636Z,99383.57
2018-03-25T03:21:51.498Z,99381.06
2018-03-25T03:24:20.592Z,99397.83
2018-03-25T03:26:49.690Z,99384.20
2018-03-25T03:29:18.794Z,99390.80
2018-03-25T03:31:47.911Z,99395.56
2018-03-25T03:34:17.776Z,99397.34
2018-03-25T03:36:46.918Z,99395.72
2018-03-25T03:39:17.092Z,99401.81
2018-03-25T03:41:47.009Z,99400.80
2018-03-25T03:44:16.107Z,99401.06
2018-03-25T03:46:45.254Z,99406.80
2018-03-25T03:49:15.107Z,99398.27
2018-03-25T03:51:44.221Z,99400.77
2018-03-25T03:54:13.303Z,99400.69
2018-03-25T03:56:42.460Z,99401.71
2018-03-25T03:59:12.302Z,99412.94
2018-03-25T04:01:41.446Z,99421.98
2018-03-25T04:04:10.550Z,99427.05
2018-03-25T04:06:39.934Z,99422.26
2018-03-25T04:09:09.011Z,99425.55
2018-03-25T04:11:38.131Z,99422.39
2018-03-25T04:14:07.252Z,99425.31
2018-03-25T04:16:36.329Z,99428.02
2018-03-25T04:19:05.433Z,99430.97
2018-03-25T04:21:34.532Z,99437.99
2018-03-25T04:24:03.639Z,99437.47
2018-03-25T04:26:32.726Z,99441.79
2018-03-25T04:29:02.595Z,99450.63
2018-03-25T04:31:32.457Z,99445.69
2018-03-25T04:34:01.574Z,99449.56
2018-03-25T04:36:30.658Z,99452.16
2018-03-25T04:38:59.777Z,99449.94
2018-03-25T04:41:29.578Z,99451.28
2018-03-25T04:43:58.689Z,99457.33
2018-03-25T04:46:27.796Z,99452.45
2018-03-25T04:48:57.664Z,99458.97
2018-03-25T04:51:26.754Z,99459.05
2018-03-25T04:53:55.898Z,99460.09
2018-03-25T04:56:25.903Z,99461.88
2018-03-25T04:58:55.782Z,99464.58
2018-03-25T05:01:24.874Z,99467.76
2018-03-25T05:03:53.976Z,99471.35
2018-03-25T05:06:23.071Z,99474.34
2018-03-25T05:08:52.146Z,99469.84
2018-03-25T05:11:21.268Z,99474.64
2018-03-25T05:13:50.363Z,99481.66
2018-03-25T05:16:19.479Z,99480.53
2018-03-25T05:18:49.333Z,99477.78
2018-03-25T05:21:18.438Z,99480.19
2018-03-25T05:23:47.539Z,99481.88
2018-03-25T05:26:16.653Z,99493.63
2018-03-25T05:28:45.742Z,99500.05
2018-03-25T05:31:14.864Z,99498.06
2018-03-25T05:33:44.723Z,99493.13
2018-03-25T05:36:13.829Z,99499.11
2018-03-25T05:38:42.937Z,99506.30
2018-03-25T05:41:12.044Z,99500.77
2018-03-25T05:43:41.138Z,99514.17
2018-03-25T05:46:11.032Z,99518.41
2018-03-25T05:48:40.170Z,99528.20
2018-03-25T05:51:09.279Z,99525.66
2018-03-25T05:53:38.378Z,99533.30
2018-03-25T05:56:07.474Z,99533.41
2018-03-25T05:58:36.578Z,99541.38
2018-03-25T06:01:05.675Z,99550.84
2018-03-25T06:03:34.780Z,99550.11
2018-03-25T06:06:03.907Z,99556.24
2018-03-25T06:08:33.771Z,99559.83
2018-03-25T06:11:02.881Z,99565.50
2018-03-25T06:13:32.529Z,99567.02
2018-03-25T06:16:01.671Z,99573.42
2018-03-25T06:18:30.764Z,99570.57
2018-03-25T06:20:59.859Z,99569.94
2018-03-25T06:23:28.995Z,99573.59
2018-03-25T06:25:58.058Z,99580.15
2018-03-25T06:28:27.158Z,99584.70
2018-03-25T06:30:56.253Z,99584.59
2018-03-25T06:33:25.365Z,99584.22
2018-03-25T06:35:55.227Z,99586.93
2018-03-25T06:38:24.359Z,99589.53
2018-03-25T06:40:53.447Z,99593.88
2018-03-25T06:43:22.530Z,99595.30
2018-03-25T06:45:51.678Z,99592.92
2018-03-25T06:48:20.762Z,99594.03
2018-03-25T06:50:49.877Z,99598.53
2018-03-25T06:53:18.986Z,99598.58
2018-03-25T06:55:48.111Z,99597.79
2018-03-25T06:58:17.204Z,99607.50
2018-03-25T07:00:46.337Z,99603.58
2018-03-25T07:03:15.441Z,99605.59
2018-03-25T07:05:44.550Z,99600.97
2018-03-25T07:08:13.647Z,99608.75
2018-03-25T07:10:42.776Z,99605.83
2018-03-25T07:13:11.892Z,99607.41
2018-03-25T07:15:41.780Z,99613.88
2018-03-25T07:18:11.639Z,99610.09
2018-03-25T07:20:41.520Z,99617.14
2018-03-25T07:23:10.638Z,99621.95
2018-03-25T07:25:39.762Z,99620.69
2018-03-25T07:28:08.863Z,99620.37
2018-03-25T07:30:37.988Z,99620.97
2018-03-25T07:33:07.099Z,99626.76
2018-03-25T07:35:36.959Z,99625.72
2018-03-25T07:38:06.049Z,99633.39
2018-03-25T07:40:35.180Z,99635.41
2018-03-25T07:43:04.287Z,99638.61
2018-03-25T07:45:33.399Z,99642.84
2018-03-25T07:48:03.271Z,99640.08
2018-03-25T07:50:32.427Z,99649.95
2018-03-25T07:53:01.546Z,99643.09
2018-03-25T07:55:30.654Z,99647.23
2018-03-25T07:57:59.742Z,99646.23
2018-03-25T08:00:28.842Z,99652.16
2018-03-25T08:02:57.970Z,99656.05
2018-03-25T08:05:27.828Z,99658.61
2018-03-25T08:07:56.922Z,99653.14
2018-03-25T08:10:26.007Z,99655.66
2018-03-25T08:12:55.894Z,99663.09
2018-03-25T08:15:24.997Z,99654.38
2018-03-25T08:17:54.130Z,99664.48
2018-03-25T08:20:23.243Z,99659.83
2018-03-25T08:22:52.368Z,99658.89
2018-03-25T08:25:21.475Z,99665.31
2018-03-25T08:27:50.576Z,99663.78
2018-03-25T08:30:19.675Z,99659.04
2018-03-25T08:32:48.793Z,99665.27
2018-03-25T08:35:17.931Z,99660.17
2018-03-25T08:37:47.069Z,99670.66
2018-03-25T08:40:16.226Z,99675.44
2018-03-25T08:42:45.284Z,99672.89
2018-03-25T08:45:14.394Z,99670.84
2018-03-25T08:47:44.266Z,99679.78
2018-03-25T08:50:13.422Z,99677.33
2018-03-25T08:52:43.335Z,99679.77
2018-03-25T08:55:13.217Z,99683.58
2018-03-25T08:57:43.112Z,99689.75
2018-03-25T09:00:12.269Z,99683.67
2018-03-25T09:02:41.385Z,99687.13
2018-03-25T09:05:10.510Z,99688.27
2018-03-25T09:07:39.625Z,99679.02
2018-03-25T09:10:09.519Z,99681.80
2018-03-25T09:12:38.673Z,99689.87
2018-03-25T09:15:07.800Z,99680.03
2018-03-25T09:17:36.916Z,99680.94
2018-03-25T09:20:06.008Z,99686.88
2018-03-25T09:22:35.905Z,99677.64
2018-03-25T09:25:05.004Z,99686.96
2018-03-25T09:27:34.148Z,99691.40
2018-03-25T09:30:03.309Z,99687.05
2018-03-25T09:32:32.436Z,99688.33
2018-03-25T09:35:01.564Z,99683.45
2018-03-25T09:37:30.727Z,99686.44
2018-03-25T09:39:59.841Z,99683.00
2018-03-25T09:42:29.031Z,99690.05
2018-03-25T09:44:58.875Z,99683.91
2018-03-25T09:47:27.986Z,99688.75
2018-03-25T09:49:57.874Z,99689.61
2018-03-25T09:52:26.994Z,99693.91
2018-03-25T09:54:56.114Z,99690.38
2018-03-25T09:57:25.212Z,99693.00
2018-03-25T09:59:54.303Z,99687.28
2018-03-25T10:02:27.262Z,99696.02
2018-03-25T10:04:57.136Z,99687.96
2018-03-25T10:07:26.251Z,99691.22
2018-03-25T10:09:55.356Z,99687.61
2018-03-25T10:12:24.471Z,99693.59
2018-03-25T10:14:54.348Z,99693.17
2018-03-25T10:17:23.479Z,99695.81
2018-03-25T10:19:52.632Z,99688.98
2018-03-25T10:22:21.741Z,99693.48
2018-03-25T10:24:51.635Z,99688.38
2018-03-25T10:27:20.760Z,99688.30
2018-03-25T10:29:50.644Z,99683.96
2018-03-25T10:32:19.740Z,99677.67
2018-03-25T10:34:48.868Z,99680.99
2018-03-25T10:37:18.006Z,99680.14
2018-03-25T10:39:47.109Z,99681.02
2018-03-25T10:42:16.216Z,99675.55
2018-03-25T10:44:45.331Z,99673.65
2018-03-25T10:47:15.230Z,99675.88
2018-03-25T10:49:44.337Z,99679.38
2018-03-25T10:52:14.242Z,99679.26
2018-03-25T10:54:43.349Z,99681.84
2018-03-25T10:57:13.232Z,99675.89
2018-03-25T10:59:42.366Z,99676.28
2018-03-25T11:02:12.251Z,99678.72
2018-03-25T11:04:41.419Z,99673.55
2018-03-25T11:07:11.301Z,99679.73
2018-03-25T11:09:40.388Z,99678.76
2018-03-25T11:12:09.551Z,99680.50
2018-03-25T11:14:38.663Z,99682.77
2018-03-25T11:17:07.836Z,99678.70
2018-03-25T11:19:37.312Z,99680.93
2018-03-25T11:22:07.249Z,99678.81
2018-03-25T11:24:36.414Z,99673.49
2018-03-25T11:27:06.253Z,99666.18
2018-03-25T11:29:35.428Z,99665.55
2018-03-25T11:32:04.564Z,99663.17
2018-03-25T11:34:34.444Z,99668.22
2018-03-25T11:37:03.558Z,99663.59
2018-03-25T11:39:33.446Z,99673.07
2018-03-25T11:42:02.563Z,99674.08
2018-03-25T11:44:31.716Z,99672.71
2018-03-25T11:47:00.841Z,99669.12
2018-03-25T11:49:29.977Z,99671.48
2018-03-25T11:51:59.103Z,99673.58
2018-03-25T11:54:28.222Z,99664.36
2018-03-25T11:56:57.330Z,99669.56
2018-03-25T11:59:26.490Z,99662.80
2018-03-25T12:01:56.430Z,99669.59
2018-03-25T12:04:25.594Z,99661.95
2018-03-25T12:06:54.736Z,99661.69
2018-03-25T12:09:23.951Z,99661.81
2018-03-25T12:11:53.820Z,99656.17
2018-03-25T12:14:22.976Z,99657.52
2018-03-25T12:16:52.076Z,99656.83
2018-03-25T12:19:21.190Z,99650.70
2018-03-25T12:21:50.309Z,99648.41
2018-03-25T12:24:19.466Z,99647.73
2018-03-25T12:26:48.640Z,99652.71
2018-03-25T12:29:18.498Z,99652.06
2018-03-25T12:31:47.627Z,99651.60
2018-03-25T12:34:16.767Z,99656.43
2018-03-25T12:36:45.918Z,99650.41
2018-03-25T12:39:15.823Z,99658.19
2018-03-25T12:41:44.955Z,99655.16
2018-03-25T12:44:14.124Z,99645.73
2018-03-25T12:46:44.012Z,99649.22
2018-03-25T12:49:13.166Z,99649.77
2018-03-25T12:51:42.294Z,99646.98
2018-03-25T12:54:11.403Z,99640.59
2018-03-25T12:56:40.521Z,99639.38
2018-03-25T12:59:09.680Z,99630.70
2018-03-25T13:01:38.827Z,99633.30
2018-03-25T13:04:07.952Z,99626.95
2018-03-25T13:06:37.037Z,99632.39
2018-03-25T13:09:06.175Z,99624.45
2018-03-25T13:11:35.306Z,99631.52
2018-03-25T13:14:04.457Z,99632.41
2018-03-25T13:16:33.591Z,99631.23
2018-03-25T13:19:02.728Z,99627.25
2018-03-25T13:21:31.854Z,99620.08
2018-03-25T13:24:02.505Z,99621.30
2018-03-25T13:26:31.662Z,99615.51
2018-03-25T13:29:00.763Z,99622.02
2018-03-25T13:31:30.757Z,99621.42
2018-03-25T13:33:59.890Z,99615.22
2018-03-25T13:36:29.763Z,99614.74
2018-03-25T13:38:58.874Z,99618.64
2018-03-25T13:41:28.039Z,99615.18
2018-03-25T13:43:57.200Z,99616.59
2018-03-25T13:46:26.342Z,99613.78
2018-03-25T13:48:55.440Z,99613.22
2018-03-25T13:51:24.846Z,99603.66
2018-03-25T13:53:54.161Z,99602.09
2018-03-25T13:56:24.228Z,99591.68
2018-03-25T13:58:53.423Z,99594.67
2018-03-25T14:01:22.560Z,99590.58
2018-03-25T14:03:51.699Z,99581.81
2018-03-25T14:06:20.811Z,99581.02
2018-03-25T14:08:49.932Z,99579.19
2018-03-25T14:11:19.065Z,99578.38
2018-03-25T14:13:48.940Z,99574.30
2018-03-25T14:16:18.062Z,99575.38
2018-03-25T14:18:47.946Z,99578.98
2018-03-25T14:21:17.086Z,99580.84
2018-03-25T14:23:46.234Z,99574.63
2018-03-25T14:26:15.363Z,99570.27
2018-03-25T14:28:44.503Z,99573.55
2018-03-25T14:31:13.599Z,99566.03
2018-03-25T14:33:42.759Z,99570.45
2018-03-25T14:36:11.975Z,99571.94
2018-03-25T14:38:41.109Z,99574.58
2018-03-25T14:41:10.559Z,99574.38
2018-03-25T14:43:39.818Z,99569.19
2018-03-25T14:46:08.957Z,99572.08
2018-03-25T14:48:38.078Z,99568.82
2018-03-25T14:51:07.230Z,99577.02
2018-03-25T14:53:37.101Z,99572.68
2018-03-25T14:56:06.231Z,99577.47
2018-03-25T14:58:36.117Z,99576.71
2018-03-25T15:01:05.283Z,99576.29
2018-03-25T15:03:34.430Z,99573.83
2018-03-25T15:06:03.544Z,99577.67
2018-03-25T15:08:32.684Z,99569.66
2018-03-25T15:11:01.847Z,99573.23
2018-03-25T15:13:31.652Z,99574.61
2018-03-25T15:16:00.757Z,99577.00
2018-03-25T15:18:29.900Z,99576.30
2018-03-25T15:20:59.830Z,99573.10
2018-03-25T15:23:28.939Z,99572.91
2018-03-25T15:26:00.894Z,99570.80
2018-03-25T15:28:31.503Z,99569.54
2018-03-25T15:31:01.420Z,99568.11
2018-03-25T15:33:30.586Z,99573.81
2018-03-25T15:35:59.750Z,99571.88
2018-03-25T15:38:28.872Z,99579.72
2018-03-25T15:40:58.045Z,99573.23
2018-03-25T15:43:27.179Z,99587.45
2018-03-25T15:45:56.337Z,99588.37
2018-03-25T15:48:25.462Z,99600.13
2018-03-25T15:50:54.628Z,99592.68
2018-03-25T15:53:23.778Z,99588.68
2018-03-25T15:55:52.952Z,99591.20
2018-03-25T15:58:22.103Z,99588.80
2018-03-25T16:00:51.202Z,99592.95
2018-03-25T16:03:20.328Z,99594.83
2018-03-25T16:05:49.433Z,99595.73
2018-03-25T16:08:18.575Z,99598.21
2018-03-25T16:10:48.472Z,99601.91
2018-03-25T16:13:17.623Z,99604.52
2018-03-25T16:15:46.743Z,99604.13
2018-03-25T16:18:16.655Z,99603.56
2018-03-25T16:20:46.584Z,99607.45
2018-03-25T16:23:16.470Z,99611.09
2018-03-25T16:25:45.589Z,99608.62
2018-03-25T16:28:14.703Z,99613.15
2018-03-25T16:30:43.847Z,99615.70
2018-03-25T16:33:12.984Z,99618.88
2018-03-25T16:35:42.103Z,99617.67
2018-03-25T16:38:11.264Z,99621.97
2018-03-25T16:40:40.379Z,99632.20
2018-03-25T16:43:09.519Z,99634.06
2018-03-25T16:45:38.639Z,99639.19
2018-03-25T16:48:08.534Z,99645.30
2018-03-25T16:50:37.639Z,99641.69
2018-03-25T16:53:07.544Z,99647.19
2018-03-25T16:55:36.695Z,99643.14
2018-03-25T16:58:05.844Z,99652.72
2018-03-25T17:00:35.719Z,99661.47
2018-03-25T17:03:04.876Z,99668.05
2018-03-25T17:05:33.992Z,99670.39
2018-03-25T17:08:03.118Z,99673.47
2018-03-25T17:10:32.251Z,99672.50
2018-03-25T17:13:01.345Z,99677.34
2018-03-25T17:15:30.474Z,99681.20
2018-03-25T17:17:59.584Z,99685.25
2018-03-25T17:20:28.746Z,99688.94
2018-03-25T17:22:57.848Z,99688.23
2018-03-25T17:25:27.009Z,99690.44
2018-03-25T17:27:56.904Z,99692.16
2018-03-25T17:30:26.041Z,99701.56
2018-03-25T17:32:55.147Z,99706.77
2018-03-25T17:35:24.274Z,99711.52
2018-03-25T17:37:53.398Z,99707.35
2018-03-25T17:40:22.561Z,99723.67
2018-03-25T17:42:51.663Z,99713.31
2018-03-25T17:45:20.799Z,99716.61
2018-03-25T17:47:49.931Z,99721.81
2018-03-25T17:50:19.088Z,99725.92
2018-03-25T17:52:48.207Z,99732.45
2018-03-25T17:55:17.305Z,99740.99
2018-03-25T17:57:47.466Z,99744.13
2018-03-25T18:00:17.427Z,99750.78
2018-03-25T18:02:46.572Z,99754.84
2018-03-25T18:05:15.714Z,99755.37
2018-03-25T18:07:44.874Z,99761.67
2018-03-25T18:10:14.747Z,99765.06
2018-03-25T18:12:43.876Z,99769.31
2018-03-25T18:15:13.003Z,99770.40
2018-03-25T18:17:42.155Z,99772.45
2018-03-25T18:20:11.377Z,99774.25
2018-03-25T18:22:40.675Z,99775.03
2018-03-25T18:25:11.998Z,99773.36
2018-03-25T18:27:41.141Z,99781.52
2018-03-25T18:30:10.252Z,99777.67
2018-03-25T18:32:39.345Z,99780.05
2018-03-25T18:35:09.274Z,99781.56
2018-03-25T18:37:38.410Z,99786.67
2018-03-25T18:40:07.607Z,99780.45
2018-03-25T18:42:36.745Z,99788.72
2018-03-25T18:45:09.241Z,99787.22
2018-03-25T18:47:39.303Z,99788.05
2018-03-25T18:50:08.466Z,99796.47
2018-03-25T18:52:37.600Z,99803.32
2018-03-25T18:55:12.560Z,99801.50
2018-03-25T18:57:41.808Z,99810.64
2018-03-25T19:00:11.790Z,99820.30
2018-03-25T19:02:40.955Z,99813.73
2018-03-25T19:05:14.259Z,99820.02
2018-03-25T19:07:43.905Z,99823.47
2018-03-25T19:10:13.054Z,99820.55
2018-03-25T19:12:42.178Z,99826.71
2018-03-25T19:15:11.310Z,99825.63
2018-03-25T19:17:45.228Z,99833.80
2018-03-25T19:20:18.867Z,99832.19
2018-03-25T19:22:48.063Z,99838.06
2018-03-25T19:25:17.196Z,99832.38
2018-03-25T19:27:52.462Z,99832.23
2018-03-25T19:30:22.037Z,99833.87
2018-03-25T19:32:51.163Z,99839.91
2018-03-25T19:35:20.316Z,99839.37
2018-03-25T19:37:50.575Z,99837.67
2018-03-25T19:40:20.167Z,99838.89
2018-03-25T19:42:49.319Z,99843.35
2018-03-25T19:45:18.519Z,99847.78
2018-03-25T19:47:49.366Z,99843.09
2018-03-25T19:50:19.349Z,99851.98
2018-03-25T19:52:49.524Z,99848.21
2018-03-25T19:55:18.669Z,99857.34
2018-03-25T19:57:47.831Z,99851.48
2018-03-25T20:00:19.911Z,99854.78
2018-03-25T20:02:50.061Z,99858.80
2018-03-25T20:05:19.193Z,99857.10
2018-03-25T20:07:49.894Z,99860.06
2018-03-25T20:10:37.144Z,99867.33
2018-03-25T20:13:07.138Z,99870.95
2018-03-25T20:15:36.302Z,99869.05
2018-03-25T20:18:05.420Z,99872.79
2018-03-25T20:20:37.513Z,99876.09
2018-03-25T20:23:09.322Z,99884.09
2018-03-25T20:25:38.480Z,99887.80
2018-03-25T20:28:07.633Z,99887.19
2018-03-25T20:30:36.761Z,99885.09
2018-03-25T20:33:07.653Z,99892.83
2018-03-25T20:35:38.260Z,99886.77
2018-03-25T20:38:07.400Z,99894.45
2018-03-25T20:40:37.576Z,99894.73
2018-03-25T20:43:07.247Z,99896.96
2018-03-25T20:45:36.403Z,99897.89
2018-03-25T20:48:05.540Z,99895.83
2018-03-25T20:50:34.676Z,99903.36
2018-03-25T20:53:03.789Z,99909.45
2018-03-25T20:55:33.144Z,99913.14
2018-03-25T20:58:02.248Z,99914.48
2018-03-25T21:00:32.311Z,99915.23
2018-03-25T21:03:02.214Z,99920.34
2018-03-25T21:05:32.280Z,99920.45
2018-03-25T21:08:02.658Z,99921.92
2018-03-25T21:10:32.528Z,99923.19
2018-03-25T21:13:01.735Z,99926.13
2018-03-25T21:15:30.843Z,99931.53
2018-03-25T21:18:00.127Z,99935.06
2018-03-25T21:20:29.399Z,99930.01
2018-03-25T21:22:58.789Z,99926.15
2018-03-25T21:25:27.883Z,99924.84
2018-03-25T21:27:57.322Z,99931.62
2018-03-25T21:30:26.730Z,99935.05
2018-03-25T21:32:56.114Z,99939.96
2018-03-25T21:35:25.252Z,99942.29
2018-03-25T21:37:55.148Z,99937.55
2018-03-25T21:40:28.816Z,99946.44
2018-03-25T21:42:58.057Z,99946.50
2018-03-25T21:45:28.537Z,99952.52
2018-03-25T21:47:58.482Z,99952.70
2018-03-25T21:50:28.125Z,99947.45
2018-03-25T21:52:58.199Z,99955.80
2018-03-25T21:55:27.357Z,99955.06
2018-03-25T21:57:56.448Z,99944.73
2018-03-25T22:00:25.541Z,99954.63
2018-03-25T22:02:55.059Z,99960.11
2018-03-25T22:05:24.229Z,99956.52
2018-03-25T22:07:53.372Z,99957.09
2018-03-25T22:10:23.506Z,99955.45
2018-03-25T22:12:52.677Z,99956.16
2018-03-25T22:15:21.781Z,99949.41
2018-03-25T22:17:50.931Z,99949.61
2018-03-25T22:20:20.805Z,99948.20
2018-03-25T22:22:50.115Z,99954.02
2018-03-25T22:25:19.216Z,99955.42
2018-03-25T22:27:48.367Z,99957.13
2018-03-25T22:30:17.546Z,99956.68
2018-03-25T22:32:46.671Z,99965.19
2018-03-25T22:35:15.782Z,99963.92
2018-03-25T22:37:45.696Z,99963.08
2018-03-25T22:40:15.726Z,99966.33
2018-03-25T22:42:44.816Z,99972.81
2018-03-25T22:45:15.214Z,99979.38
2018-03-25T22:47:44.516Z,99970.20
2018-03-25T22:50:14.409Z,99972.81
2018-03-25T22:52:43.486Z,99975.41
2018-03-25T22:55:12.582Z,99975.11
2018-03-25T22:57:41.716Z,99975.91
2018-03-25T23:00:10.810Z,99980.09
2018-03-25T23:02:39.936Z,99978.55
2018-03-25T23:05:09.886Z,99980.38
2018-03-25T23:07:39.022Z,99982.52
2018-03-25T23:10:08.894Z,99982.92
2018-03-25T23:12:38.003Z,99989.12
2018-03-25T23:15:07.097Z,99990.61
2018-03-25T23:17:36.207Z,99984.06
2018-03-25T23:20:06.092Z,99985.63
2018-03-25T23:22:35.211Z,99983.31
2018-03-25T23:25:04.311Z,99987.95
2018-03-25T23:27:34.232Z,99995.50
2018-03-25T23:30:04.082Z,99995.84
2018-03-25T23:32:33.213Z,99990.14
2018-03-25T23:35:02.298Z,99993.86
2018-03-25T23:37:31.398Z,99997.27
2018-03-25T23:40:00.485Z,99997.92
2018-03-25T23:42:29.582Z,99990.95
2018-03-25T23:44:58.702Z,99989.86
2018-03-25T23:47:28.561Z,99998.17
2018-03-25T23:49:57.661Z,100001.67
2018-03-25T23:52:26.943Z,100008.81
2018-03-25T23:54:56.229Z,100006.39
2018-03-25T23:57:25.339Z,100013.42
2018-03-25T23:59:54.442Z,100010.22
